Terminal Aerodrome Forecast
Issued by NWS

Home | Current Version | Previous Version | Text Only | Print | Product List | Glossary On
Versions: 1 2 3 4 5 6 7 8 9 10 11 12 13 14 15
000
FTUS42 KTBW 011737
TAFPGD
TAF
KPGD 011737Z 0118/0218 30004KT P6SM FEW070 FEW200
     FM020700 02004KT P6SM FEW045 FEW200
     FM021000 VRB03KT 1SM BCFG FEW005 SCT200
     FM021300 04004KT P6SM FEW035 SCT150
     FM021700 15008KT P6SM SCT045=

USA.gov is the U.S. government's official web portal to all federal, state and local government web resources and services.